Terminal Aerodrome Forecast
Issued by NWS

Home | Current Version | Previous Version | Text Only | Print | Product List | Glossary On
Versions: 1 2 3 4 5 6 7 8 9 10 11 12 13 14 15 16 17 18 19
000
FTUS41 KGYX 281210 AAA
TAFLEB
TAF AMD
KLEB 281210Z 2812/2912 18005KT 3SM -RA BR BKN020
     FM281400 26012KT P6SM BKN045
     FM282200 30005KT P6SM BKN250=

USA.gov is the U.S. government's official web portal to all federal, state and local government web resources and services.